Time;durP1;ratioP1;P1;durP2;ratioP2;P2;SDS_P1;SDS_P2;PMS_P1;PMS_P2;Temp;Humidity;BMP_temperature;BMP_pressure;BME280_temperature;BME280_humidity;BME280_pressure;Samples;Min_cycle;Max_cycle;Signal;HPM_P1;HPM_P2
2023/07/01 00:01:34;;;;;;;9.07;3.67;;;;;;;;;;5033323;28;20175;-70
2023/07/01 00:04:00;;;;;;;7.97;3.93;;;;;;;;;;5033071;28;20547;-69
2023/07/01 00:06:29;;;;;;;5.07;4.10;;;;;;;;;;5033337;28;20214;-70
2023/07/01 00:08:55;;;;;;;5.27;3.50;;;;;;;;;;5033382;28;20598;-69
2023/07/01 00:11:21;;;;;;;5.17;3.13;;;;;;;;;;5033059;28;20262;-71
2023/07/01 00:13:48;;;;;;;6.80;3.60;;;;;;;;;;5033380;28;20641;-69
2023/07/01 00:16:14;;;;;;;6.90;3.73;;;;;;;;;;5039959;28;20281;-69
2023/07/01 00:18:40;;;;;;;6.87;3.57;;;;;;;;;;5043532;28;20195;-69
2023/07/01 00:21:07;;;;;;;5.13;3.77;;;;;;;;;;5040808;28;20266;-69
2023/07/01 00:23:33;;;;;;;5.87;3.60;;;;;;;;;;5037721;28;20233;-69
2023/07/01 00:25:59;;;;;;;8.63;3.97;;;;;;;;;;5034820;28;20268;-71
2023/07/01 00:28:25;;;;;;;7.77;3.50;;;;;;;;;;5033307;28;20586;-71
2023/07/01 00:30:50;;;;;;;8.23;4.00;;;;;;;;;;5033075;28;20175;-70
2023/07/01 00:33:16;;;;;;;6.70;3.90;;;;;;;;;;5033160;28;20175;-70
2023/07/01 00:35:42;;;;;;;8.03;3.73;;;;;;;;;;5033518;28;20201;-70
2023/07/01 00:38:08;;;;;;;5.07;3.30;;;;;;;;;;5033471;28;20260;-70
2023/07/01 00:40:34;;;;;;;8.07;3.73;;;;;;;;;;5033096;28;20195;-69
2023/07/01 00:43:00;;;;;;;6.63;3.83;;;;;;;;;;5033412;28;20586;-70
2023/07/01 00:45:26;;;;;;;9.93;3.57;;;;;;;;;;5032559;28;20175;-70
2023/07/01 00:47:52;;;;;;;9.47;3.33;;;;;;;;;;5032795;28;20282;-70
2023/07/01 00:50:18;;;;;;;9.00;3.50;;;;;;;;;;5015106;28;20208;-70
2023/07/01 00:52:44;;;;;;;4.13;3.13;;;;;;;;;;5032921;28;20182;-70
2023/07/01 00:55:12;;;;;;;7.97;3.30;;;;;;;;;;5032882;28;20179;-69
2023/07/01 00:57:38;;;;;;;5.30;2.87;;;;;;;;;;5015049;28;20257;-70
2023/07/01 01:00:08;;;;;;;8.53;3.43;;;;;;;;;;5036622;28;20207;-70
2023/07/01 01:02:39;;;;;;;5.07;3.20;;;;;;;;;;5022199;28;20642;-70
2023/07/01 01:05:10;;;;;;;9.17;3.53;;;;;;;;;;5019463;28;20179;-70
2023/07/01 01:07:53;;;;;;;7.53;3.53;;;;;;;;;;5038432;28;20746;-70
2023/07/01 01:10:23;;;;;;;11.77;3.80;;;;;;;;;;5038604;28;20179;-69
2023/07/01 01:12:51;;;;;;;6.93;3.43;;;;;;;;;;5020289;28;20568;-70
2023/07/01 01:15:17;;;;;;;8.07;3.93;;;;;;;;;;5037884;28;20638;-70
2023/07/01 01:17:44;;;;;;;9.37;3.57;;;;;;;;;;5038094;28;20294;-70
2023/07/01 01:20:16;;;;;;;6.07;3.90;;;;;;;;;;5038199;28;20203;-70
2023/07/01 01:22:45;;;;;;;6.67;4.27;;;;;;;;;;5037952;28;20164;-70
2023/07/01 01:25:13;;;;;;;6.80;3.30;;;;;;;;;;5019930;28;20191;-70
2023/07/01 01:27:40;;;;;;;7.83;3.67;;;;;;;;;;5038258;28;20245;-70
2023/07/01 01:30:07;;;;;;;7.67;3.50;;;;;;;;;;5037764;28;20183;-69
2023/07/01 01:32:34;;;;;;;7.83;3.90;;;;;;;;;;5038499;28;20551;-70
2023/07/01 01:35:00;;;;;;;7.97;3.83;;;;;;;;;;5037120;28;20171;-70
2023/07/01 01:37:33;;;;;;;8.73;4.03;;;;;;;;;;5036329;28;20321;-70
2023/07/01 01:40:09;;;;;;;8.83;3.60;;;;;;;;;;5036473;28;20191;-70
2023/07/01 01:42:36;;;;;;;7.83;3.40;;;;;;;;;;5036521;28;20617;-70
2023/07/01 01:45:03;;;;;;;7.73;3.23;;;;;;;;;;5036272;28;20250;-69
2023/07/01 01:47:30;;;;;;;6.70;3.40;;;;;;;;;;5036193;28;20278;-70
2023/07/01 01:49:59;;;;;;;5.13;3.33;;;;;;;;;;5036132;28;20183;-70
2023/07/01 01:52:25;;;;;;;5.80;3.80;;;;;;;;;;5018058;28;20701;-70
2023/07/01 01:54:52;;;;;;;6.27;3.40;;;;;;;;;;5035939;28;20187;-70
2023/07/01 01:57:19;;;;;;;6.87;3.50;;;;;;;;;;5036829;28;20621;-70
2023/07/01 01:59:45;;;;;;;7.83;3.60;;;;;;;;;;5038835;28;20281;-70
2023/07/01 02:02:11;;;;;;;4.37;3.00;;;;;;;;;;5023497;28;20206;-70
2023/07/01 02:04:37;;;;;;;8.60;3.60;;;;;;;;;;5040130;28;20202;-70
2023/07/01 02:07:03;;;;;;;7.97;3.37;;;;;;;;;;5040620;28;20287;-70
2023/07/01 02:09:29;;;;;;;9.30;3.30;;;;;;;;;;5020847;28;20187;-70
2023/07/01 02:11:56;;;;;;;4.60;3.07;;;;;;;;;;5038775;28;20176;-70
2023/07/01 02:14:22;;;;;;;7.17;3.67;;;;;;;;;;5039271;28;20179;-69
2023/07/01 02:16:49;;;;;;;6.93;3.30;;;;;;;;;;5038250;28;20199;-69
2023/07/01 02:19:15;;;;;;;8.53;3.13;;;;;;;;;;5035772;28;20225;-69
2023/07/01 02:21:41;;;;;;;5.13;3.17;;;;;;;;;;5035473;28;20178;-69
2023/07/01 02:24:07;;;;;;;4.73;3.23;;;;;;;;;;5017687;28;20183;-69
2023/07/01 02:26:33;;;;;;;5.90;3.13;;;;;;;;;;5035422;28;20293;-67
2023/07/01 02:28:59;;;;;;;6.40;3.20;;;;;;;;;;5035688;28;20176;-68
2023/07/01 02:31:25;;;;;;;8.33;3.30;;;;;;;;;;5017364;28;20202;-67
2023/07/01 02:33:51;;;;;;;4.03;3.00;;;;;;;;;;5035283;28;20195;-68
2023/07/01 02:36:18;;;;;;;8.67;3.27;;;;;;;;;;5035271;28;20203;-67
2023/07/01 02:38:43;;;;;;;6.83;3.10;;;;;;;;;;5016886;28;20289;-67
2023/07/01 02:41:09;;;;;;;12.10;3.77;;;;;;;;;;5017214;28;20675;-67
2023/07/01 02:43:35;;;;;;;4.43;2.70;;;;;;;;;;5034855;28;20646;-67
2023/07/01 02:46:01;;;;;;;7.90;3.33;;;;;;;;;;5017013;28;20669;-67
2023/07/01 02:48:27;;;;;;;7.27;3.30;;;;;;;;;;5017090;28;20175;-68
2023/07/01 02:50:53;;;;;;;5.43;3.00;;;;;;;;;;5017046;28;20657;-67
2023/07/01 02:53:19;;;;;;;6.63;3.53;;;;;;;;;;5017056;28;20201;-67
2023/07/01 02:55:46;;;;;;;6.77;3.10;;;;;;;;;;5016887;28;20206;-68
2023/07/01 02:58:12;;;;;;;7.03;3.17;;;;;;;;;;5016787;28;20187;-67
2023/07/01 03:00:38;;;;;;;9.83;2.90;;;;;;;;;;5044040;28;20207;-68
2023/07/01 03:03:06;;;;;;;5.37;2.87;;;;;;;;;;5053055;28;20177;-68
2023/07/01 03:05:33;;;;;;;7.60;3.13;;;;;;;;;;5047523;28;20190;-67
2023/07/01 03:07:59;;;;;;;4.50;3.03;;;;;;;;;;5038294;28;20179;-67
2023/07/01 03:10:25;;;;;;;8.77;3.40;;;;;;;;;;5019146;28;20198;-67
2023/07/01 03:12:51;;;;;;;5.73;2.87;;;;;;;;;;5018735;28;20191;-68
2023/07/01 03:15:17;;;;;;;7.90;3.27;;;;;;;;;;5035829;28;20203;-69
2023/07/01 03:17:43;;;;;;;5.17;3.00;;;;;;;;;;5036054;28;20183;-69
2023/07/01 03:20:22;;;;;;;4.67;2.80;;;;;;;;;;5017360;28;20651;-69
2023/07/01 03:22:58;;;;;;;4.77;2.90;;;;;;;;;;5017177;28;20175;-68
2023/07/01 03:25:25;;;;;;;7.13;3.10;;;;;;;;;;5016194;28;20213;-68
2023/07/01 03:27:51;;;;;;;7.67;3.00;;;;;;;;;;5034057;28;20202;-69
2023/07/01 03:30:18;;;;;;;6.20;2.50;;;;;;;;;;5033912;28;20206;-69
2023/07/01 03:32:44;;;;;;;9.33;3.13;;;;;;;;;;5033735;28;20179;-69
2023/07/01 03:35:11;;;;;;;6.33;3.17;;;;;;;;;;5016006;28;20680;-69
2023/07/01 03:37:38;;;;;;;4.23;2.93;;;;;;;;;;5033473;28;20225;-69
2023/07/01 03:40:04;;;;;;;9.27;3.10;;;;;;;;;;5033469;28;20210;-69
2023/07/01 03:42:31;;;;;;;7.03;2.73;;;;;;;;;;5034281;28;20575;-69
2023/07/01 03:44:57;;;;;;;3.67;2.80;;;;;;;;;;5033519;28;20190;-69
2023/07/01 03:47:23;;;;;;;11.77;3.20;;;;;;;;;;5016532;28;20210;-69
2023/07/01 03:49:49;;;;;;;4.30;2.73;;;;;;;;;;5034089;28;20187;-69
2023/07/01 03:52:15;;;;;;;4.27;2.97;;;;;;;;;;5033808;28;20229;-69
2023/07/01 03:54:41;;;;;;;5.20;3.33;;;;;;;;;;5033330;28;20258;-69
2023/07/01 03:57:07;;;;;;;7.17;3.83;;;;;;;;;;5033356;28;20288;-68
2023/07/01 03:59:33;;;;;;;8.20;3.17;;;;;;;;;;5033482;28;20567;-68
2023/07/01 04:02:00;;;;;;;7.47;3.13;;;;;;;;;;5072021;22;20256;-65
2023/07/01 04:04:26;;;;;;;4.33;3.20;;;;;;;;;;5036723;28;20178;-65
2023/07/01 04:06:54;;;;;;;6.23;3.10;;;;;;;;;;5054793;28;20178;-65
2023/07/01 04:09:20;;;;;;;6.03;2.90;;;;;;;;;;5054153;28;20206;-65
2023/07/01 04:11:47;;;;;;;5.87;2.90;;;;;;;;;;5035842;28;20225;-65
2023/07/01 04:14:15;;;;;;;5.77;2.43;;;;;;;;;;5054007;28;20181;-64
2023/07/01 04:16:42;;;;;;;7.30;2.83;;;;;;;;;;5055220;28;20187;-65
2023/07/01 04:19:08;;;;;;;7.70;2.97;;;;;;;;;;5055329;28;20216;-66
2023/07/01 04:21:34;;;;;;;5.83;3.13;;;;;;;;;;5055974;28;20694;-65
2023/07/01 04:24:04;;;;;;;5.57;3.00;;;;;;;;;;5055743;28;20175;-65
2023/07/01 04:26:30;;;;;;;6.33;3.20;;;;;;;;;;5055405;28;20262;-65
2023/07/01 04:28:56;;;;;;;3.23;2.70;;;;;;;;;;5054492;28;20222;-64
2023/07/01 04:31:22;;;;;;;2.73;2.40;;;;;;;;;;5054296;28;20204;-63
2023/07/01 04:33:48;;;;;;;3.60;2.53;;;;;;;;;;5054626;28;20182;-64
2023/07/01 04:36:14;;;;;;;4.90;2.63;;;;;;;;;;5054335;28;20694;-63
2023/07/01 04:38:39;;;;;;;6.70;3.03;;;;;;;;;;5053842;28;20282;-64
2023/07/01 04:41:06;;;;;;;4.33;2.93;;;;;;;;;;5039978;28;20198;-64
2023/07/01 04:43:32;;;;;;;5.07;3.10;;;;;;;;;;5057997;28;20174;-64
2023/07/01 04:45:58;;;;;;;4.73;2.60;;;;;;;;;;5060418;28;20175;-64
2023/07/01 04:48:24;;;;;;;4.03;3.00;;;;;;;;;;5051735;28;20228;-64
2023/07/01 04:50:50;;;;;;;5.17;3.63;;;;;;;;;;5059843;28;20261;-64
2023/07/01 04:53:16;;;;;;;6.70;3.33;;;;;;;;;;5040580;28;20179;-63
2023/07/01 04:55:42;;;;;;;3.50;3.07;;;;;;;;;;5040164;28;20186;-64
2023/07/01 04:58:08;;;;;;;4.83;2.97;;;;;;;;;;5058429;28;20190;-64
2023/07/01 05:00:34;;;;;;;5.23;3.93;;;;;;;;;;5041317;28;20221;-64
2023/07/01 05:03:00;;;;;;;9.80;7.43;;;;;;;;;;5059485;28;20641;-64
2023/07/01 05:05:26;;;;;;;8.90;6.60;;;;;;;;;;5059545;28;20617;-64
2023/07/01 05:07:52;;;;;;;11.93;7.33;;;;;;;;;;5058952;28;20205;-64
2023/07/01 05:10:18;;;;;;;5.47;3.47;;;;;;;;;;5039582;28;20182;-64
2023/07/01 05:12:44;;;;;;;6.00;3.23;;;;;;;;;;5057487;28;20233;-64
2023/07/01 05:15:10;;;;;;;7.67;2.93;;;;;;;;;;5058654;28;20252;-64
2023/07/01 05:17:36;;;;;;;6.50;3.10;;;;;;;;;;5040852;28;20184;-64
2023/07/01 05:20:03;;;;;;;5.07;3.17;;;;;;;;;;5040818;28;20214;-63
2023/07/01 05:22:29;;;;;;;3.07;2.50;;;;;;;;;;5040635;28;20194;-64
2023/07/01 05:24:55;;;;;;;4.40;2.70;;;;;;;;;;5059608;28;20233;-64
2023/07/01 05:27:21;;;;;;;5.97;2.90;;;;;;;;;;5060701;28;20201;-64
2023/07/01 05:29:47;;;;;;;3.60;2.60;;;;;;;;;;5061607;28;20175;-66
2023/07/01 05:32:13;;;;;;;4.37;2.77;;;;;;;;;;5069848;28;20228;-65
2023/07/01 05:34:39;;;;;;;4.87;2.83;;;;;;;;;;5070799;28;20205;-66
2023/07/01 05:37:05;;;;;;;3.60;2.67;;;;;;;;;;5069979;28;20182;-66
2023/07/01 05:39:31;;;;;;;8.85;3.17;;;;;;;;;;5057327;28;20933;-63
2023/07/01 05:41:57;;;;;;;5.70;3.13;;;;;;;;;;5038865;28;20413;-65
2023/07/01 05:44:25;;;;;;;5.27;3.40;;;;;;;;;;5040379;28;20185;-65
2023/07/01 05:46:50;;;;;;;6.17;3.17;;;;;;;;;;5040961;28;20170;-66
2023/07/01 05:49:16;;;;;;;5.00;2.97;;;;;;;;;;5058592;28;20234;-65
2023/07/01 05:51:42;;;;;;;4.27;3.10;;;;;;;;;;5039019;28;20210;-65
2023/07/01 05:54:08;;;;;;;5.27;3.37;;;;;;;;;;5057637;28;20209;-65
2023/07/01 05:56:34;;;;;;;11.43;3.40;;;;;;;;;;5057432;28;20183;-65
2023/07/01 05:59:00;;;;;;;3.83;3.30;;;;;;;;;;5057109;28;20194;-65
2023/07/01 06:01:26;;;;;;;7.57;3.00;;;;;;;;;;5038595;28;20241;-66
2023/07/01 06:03:52;;;;;;;3.93;3.17;;;;;;;;;;5056561;28;20178;-65
2023/07/01 06:06:18;;;;;;;6.30;3.80;;;;;;;;;;5038934;28;20256;-65
2023/07/01 06:08:44;;;;;;;5.30;3.50;;;;;;;;;;5038335;28;20558;-65
2023/07/01 06:11:10;;;;;;;7.03;3.70;;;;;;;;;;5038135;28;20194;-65
2023/07/01 06:13:39;;;;;;;5.57;3.37;;;;;;;;;;5055989;28;20170;-65
2023/07/01 06:16:05;;;;;;;7.25;3.65;;;;;;;;;;5037338;28;20381;-65
2023/07/01 06:18:31;;;;;;;6.30;3.67;;;;;;;;;;5036971;28;20374;-63
2023/07/01 06:20:58;;;;;;;5.35;4.05;;;;;;;;;;5036754;28;20385;-62
2023/07/01 06:23:25;;;;;;;6.38;4.07;;;;;;;;;;5054704;28;20383;-62
2023/07/01 06:25:51;;;;;;;7.30;4.32;;;;;;;;;;5054980;28;20427;-63
2023/07/01 06:28:17;;;;;;;7.10;4.32;;;;;;;;;;5040046;28;20425;-64
2023/07/01 06:30:43;;;;;;;6.70;4.70;;;;;;;;;;5062241;28;20377;-64
2023/07/01 06:33:10;;;;;;;8.70;5.60;;;;;;;;;;5052794;28;20382;-65
2023/07/01 06:35:41;;;;;;;8.33;5.53;;;;;;;;;;5040880;28;20907;-64
2023/07/01 06:38:07;;;;;;;8.43;4.28;;;;;;;;;;5036776;28;20389;-64
2023/07/01 06:40:33;;;;;;;7.82;4.40;;;;;;;;;;5057739;28;20500;-64
2023/07/01 06:42:59;;;;;;;6.85;4.10;;;;;;;;;;5055599;28;20384;-64
2023/07/01 06:45:25;;;;;;;7.88;3.97;;;;;;;;;;5037538;28;20389;-64
2023/07/01 06:47:50;;;;;;;7.18;4.40;;;;;;;;;;5054209;28;20385;-64
2023/07/01 06:50:16;;;;;;;4.53;3.80;;;;;;;;;;5036190;28;20396;-64
2023/07/01 06:52:42;;;;;;;4.60;4.03;;;;;;;;;;5054532;28;20411;-64
2023/07/01 06:55:08;;;;;;;6.00;4.10;;;;;;;;;;5035940;28;20425;-64
2023/07/01 06:57:34;;;;;;;8.10;4.05;;;;;;;;;;5036206;28;20389;-65
2023/07/01 07:00:00;;;;;;;6.80;4.05;;;;;;;;;;5056224;28;20401;-65
2023/07/01 07:02:26;;;;;;;6.90;3.58;;;;;;;;;;5055298;28;20822;-65
2023/07/01 07:04:52;;;;;;;6.35;4.10;;;;;;;;;;5054344;28;20859;-63
2023/07/01 07:07:18;;;;;;;5.68;3.97;;;;;;;;;;5036160;28;20374;-64
2023/07/01 07:09:45;;;;;;;7.15;3.70;;;;;;;;;;5053771;28;20891;-63
2023/07/01 07:12:11;;;;;;;6.47;3.65;;;;;;;;;;5035756;28;20397;-64
2023/07/01 07:14:36;;;;;;;3.83;3.38;;;;;;;;;;5035697;28;20386;-64
2023/07/01 07:17:02;;;;;;;5.13;3.45;;;;;;;;;;5053799;28;20950;-63
2023/07/01 07:19:29;;;;;;;5.90;3.50;;;;;;;;;;5053546;28;20818;-64
2023/07/01 07:21:55;;;;;;;5.00;3.58;;;;;;;;;;5053833;28;20744;-64
2023/07/01 07:24:21;;;;;;;5.83;3.20;;;;;;;;;;5035589;28;20459;-64
2023/07/01 07:26:55;;;;;;;5.07;3.20;;;;;;;;;;5053635;28;20389;-63
2023/07/01 07:29:21;;;;;;;5.35;3.03;;;;;;;;;;5035575;28;20385;-64
2023/07/01 07:31:47;;;;;;;6.82;3.05;;;;;;;;;;5035651;28;20477;-64
2023/07/01 07:34:13;;;;;;;5.30;2.85;;;;;;;;;;5053772;28;20381;-64
2023/07/01 07:36:39;;;;;;;5.43;3.10;;;;;;;;;;5054031;28;20390;-63
2023/07/01 07:39:06;;;;;;;6.03;3.10;;;;;;;;;;5036359;28;20492;-63
2023/07/01 07:41:32;;;;;;;5.32;2.90;;;;;;;;;;5054051;28;20385;-63
2023/07/01 07:43:59;;;;;;;5.32;2.97;;;;;;;;;;5054065;28;20401;-65
2023/07/01 07:46:25;;;;;;;5.33;2.87;;;;;;;;;;5036589;28;20473;-64
2023/07/01 07:48:51;;;;;;;4.05;3.10;;;;;;;;;;5037618;28;20400;-64
2023/07/01 07:51:17;;;;;;;5.90;2.90;;;;;;;;;;5055493;28;20393;-64
2023/07/01 07:53:43;;;;;;;2.95;2.65;;;;;;;;;;5055056;28;20377;-64
2023/07/01 07:56:09;;;;;;;3.78;2.92;;;;;;;;;;5056339;28;20384;-64
2023/07/01 07:58:35;;;;;;;3.75;2.70;;;;;;;;;;5057364;28;20381;-64
2023/07/01 08:01:01;;;;;;;4.28;2.70;;;;;;;;;;5039275;28;20405;-64
2023/07/01 08:03:27;;;;;;;5.20;2.83;;;;;;;;;;5057215;28;20979;-64
2023/07/01 08:05:53;;;;;;;5.07;2.58;;;;;;;;;;5039765;28;20425;-64
2023/07/01 08:08:19;;;;;;;2.72;2.50;;;;;;;;;;5054027;28;20385;-64
2023/07/01 08:10:45;;;;;;;3.33;2.40;;;;;;;;;;5053043;28;20477;-64
2023/07/01 08:13:13;;;;;;;4.65;2.75;;;;;;;;;;5034699;28;20444;-64
2023/07/01 08:15:40;;;;;;;4.60;2.50;;;;;;;;;;5052186;28;20370;-64
2023/07/01 08:18:06;;;;;;;5.07;2.70;;;;;;;;;;5052823;28;20385;-64
2023/07/01 08:20:32;;;;;;;6.00;2.70;;;;;;;;;;5055163;28;20512;-64
2023/07/01 08:22:58;;;;;;;3.85;2.90;;;;;;;;;;5055376;28;20861;-64
2023/07/01 08:25:24;;;;;;;4.72;2.90;;;;;;;;;;5055436;28;20405;-64
2023/07/01 08:27:50;;;;;;;4.95;3.33;;;;;;;;;;5037551;28;20401;-65
2023/07/01 08:30:16;;;;;;;5.23;3.40;;;;;;;;;;5037722;28;20528;-64
2023/07/01 08:32:42;;;;;;;4.75;3.67;;;;;;;;;;5037328;28;20460;-64
2023/07/01 08:35:08;;;;;;;5.13;3.97;;;;;;;;;;5054885;28;20413;-63
2023/07/01 08:37:34;;;;;;;4.68;3.60;;;;;;;;;;5054930;28;20456;-65
2023/07/01 08:40:00;;;;;;;3.00;2.70;;;;;;;;;;5055008;28;20413;-64
2023/07/01 08:42:30;;;;;;;4.55;3.20;;;;;;;;;;5054667;28;20459;-64
2023/07/01 08:44:57;;;;;;;3.58;3.20;;;;;;;;;;5035964;28;20787;-63
2023/07/01 08:47:25;;;;;;;4.53;3.30;;;;;;;;;;5036315;28;20369;-64
2023/07/01 08:49:52;;;;;;;3.95;3.55;;;;;;;;;;5052914;28;20389;-64
2023/07/01 08:52:20;;;;;;;4.90;3.60;;;;;;;;;;5054113;28;20377;-64
2023/07/01 08:54:46;;;;;;;4.32;3.80;;;;;;;;;;5052112;28;20438;-65
2023/07/01 08:57:12;;;;;;;4.70;3.35;;;;;;;;;;5052126;28;20480;-66
2023/07/01 08:59:38;;;;;;;3.85;3.40;;;;;;;;;;5052302;28;20879;-65
2023/07/01 09:02:05;;;;;;;5.25;3.60;;;;;;;;;;5052955;28;20393;-65
2023/07/01 09:04:31;;;;;;;5.38;3.42;;;;;;;;;;5052553;28;20386;-65
2023/07/01 09:06:56;;;;;;;4.50;3.30;;;;;;;;;;5033932;28;20396;-65
2023/07/01 09:09:23;;;;;;;5.55;3.78;;;;;;;;;;5038105;28;20385;-64
2023/07/01 09:11:49;;;;;;;4.45;4.00;;;;;;;;;;5038322;28;20385;-64
2023/07/01 09:14:15;;;;;;;4.25;3.53;;;;;;;;;;5059212;28;20394;-64
2023/07/01 09:16:41;;;;;;;4.20;3.90;;;;;;;;;;5060357;28;20393;-64
2023/07/01 09:19:08;;;;;;;4.18;3.30;;;;;;;;;;5045200;28;20397;-64
2023/07/01 09:21:35;;;;;;;4.37;3.53;;;;;;;;;;5062121;28;20515;-64
2023/07/01 09:24:01;;;;;;;4.37;3.00;;;;;;;;;;5061504;28;20396;-63
2023/07/01 09:26:30;;;;;;;4.97;3.30;;;;;;;;;;5062748;28;20374;-64
2023/07/01 09:28:57;;;;;;;3.58;3.28;;;;;;;;;;5055575;28;20948;-63
2023/07/01 09:31:24;;;;;;;5.22;3.67;;;;;;;;;;5037693;28;20401;-63
2023/07/01 09:34:03;;;;;;;5.50;3.33;;;;;;;;;;5055087;28;20378;-64
2023/07/01 09:36:30;;;;;;;5.90;3.67;;;;;;;;;;5055569;28;20377;-64
2023/07/01 09:38:57;;;;;;;4.80;3.58;;;;;;;;;;5055080;28;20377;-64
2023/07/01 09:41:26;;;;;;;5.72;3.72;;;;;;;;;;5037164;28;20382;-64
2023/07/01 09:43:56;;;;;;;6.38;3.70;;;;;;;;;;5055315;28;20894;-64
2023/07/01 09:46:22;;;;;;;4.55;3.60;;;;;;;;;;5055177;28;20385;-64
2023/07/01 09:48:55;;;;;;;4.15;3.53;;;;;;;;;;5037256;28;20473;-63
2023/07/01 09:51:22;;;;;;;6.55;4.13;;;;;;;;;;5037309;28;20926;-64
2023/07/01 09:53:48;;;;;;;5.40;3.53;;;;;;;;;;5037016;28;20384;-65
2023/07/01 09:56:18;;;;;;;4.00;3.53;;;;;;;;;;5054891;28;20382;-63
2023/07/01 09:58:45;;;;;;;4.80;3.20;;;;;;;;;;5036853;28;20482;-64
2023/07/01 10:01:12;;;;;;;3.85;3.17;;;;;;;;;;5036863;28;20409;-64
2023/07/01 10:03:38;;;;;;;3.75;3.28;;;;;;;;;;5055224;28;20385;-65
2023/07/01 10:06:05;;;;;;;3.10;2.80;;;;;;;;;;5055192;28;20378;-64
2023/07/01 10:08:31;;;;;;;3.13;2.90;;;;;;;;;;5054985;28;20380;-67
2023/07/01 10:11:17;;;;;;;3.30;3.00;;;;;;;;;;5037186;28;20381;-64
2023/07/01 10:13:51;;;;;;;4.82;2.92;;;;;;;;;;5054855;28;20388;-65
2023/07/01 10:16:18;;;;;;;3.47;2.70;;;;;;;;;;5054671;28;20396;-65
2023/07/01 10:18:44;;;;;;;4.45;2.05;;;;;;;;;;5054387;28;20393;-65
2023/07/01 10:21:30;;;;;;;3.08;2.78;;;;;;;;;;5060758;22;20530;-71
2023/07/01 10:23:59;;;;;;;2.95;2.40;;;;;;;;;;5015989;28;20399;-72
2023/07/01 10:26:37;;;;;;;4.85;2.13;;;;;;;;;;5016319;28;20383;-73
2023/07/01 10:29:22;;;;;;;2.28;1.80;;;;;;;;;;5033828;28;20387;-72
2023/07/01 10:32:20;;;;;;;2.70;1.70;;;;;;;;;;5033838;28;20464;-72
2023/07/01 10:34:55;;;;;;;1.80;1.70;;;;;;;;;;5000756;28;20440;-72
2023/07/01 10:37:25;;;;;;;3.20;1.60;;;;;;;;;;5015317;28;20440;-72
2023/07/01 10:39:51;;;;;;;2.08;1.50;;;;;;;;;;5015853;28;20399;-72
2023/07/01 10:42:33;;;;;;;1.80;1.50;;;;;;;;;;5033635;28;20888;-72
2023/07/01 10:45:12;;;;;;;2.00;1.88;;;;;;;;;;5033497;28;20386;-72
2023/07/01 10:47:44;;;;;;;2.58;1.80;;;;;;;;;;5015556;28;20822;-72
2023/07/01 10:50:11;;;;;;;1.88;1.70;;;;;;;;;;5033968;28;20378;-73
2023/07/01 10:52:57;;;;;;;1.90;1.80;;;;;;;;;;5033421;28;20757;-73
2023/07/01 10:55:39;;;;;;;1.90;1.50;;;;;;;;;;5015454;28;20402;-72
2023/07/01 10:58:23;;;;;;;1.60;1.50;;;;;;;;;;5033596;28;20418;-72
2023/07/01 11:00:52;;;;;;;1.70;1.60;;;;;;;;;;5033411;28;20411;-72
2023/07/01 11:03:34;;;;;;;1.50;1.33;;;;;;;;;;5034326;28;20433;-72
2023/07/01 11:06:00;;;;;;;2.13;1.50;;;;;;;;;;5023929;28;20399;-72
2023/07/01 11:08:26;;;;;;;2.08;1.60;;;;;;;;;;5033331;28;20763;-72
2023/07/01 11:10:52;;;;;;;1.45;1.35;;;;;;;;;;5015423;28;20391;-72
2023/07/01 11:13:18;;;;;;;1.58;1.48;;;;;;;;;;5015345;28;20382;-72
2023/07/01 11:16:05;;;;;;;1.90;1.50;;;;;;;;;;5015347;28;20750;-72
2023/07/01 11:18:47;;;;;;;3.10;1.70;;;;;;;;;;5014994;28;20383;-72
2023/07/01 11:21:14;;;;;;;1.48;1.38;;;;;;;;;;5032538;28;20410;-72
2023/07/01 11:23:43;;;;;;;2.78;1.70;;;;;;;;;;5032932;28;20425;-72
2023/07/01 11:26:09;;;;;;;1.63;1.52;;;;;;;;;;5033022;28;20862;-72
2023/07/01 11:28:36;;;;;;;3.65;2.00;;;;;;;;;;5015034;28;20718;-72
2023/07/01 11:31:29;;;;;;;2.42;1.70;;;;;;;;;;5032603;28;20465;-72
2023/07/01 11:33:55;;;;;;;2.00;1.63;;;;;;;;;;5012669;28;20453;-72
2023/07/01 11:36:34;;;;;;;2.13;1.60;;;;;;;;;;5032468;28;20379;-72
2023/07/01 11:39:03;;;;;;;2.85;1.55;;;;;;;;;;5032708;28;20411;-72
2023/07/01 11:41:29;;;;;;;2.63;1.70;;;;;;;;;;5014740;28;20449;-72
2023/07/01 11:43:55;;;;;;;2.55;1.60;;;;;;;;;;5032643;28;20371;-71
2023/07/01 11:46:38;;;;;;;2.83;1.90;;;;;;;;;;5032346;28;20798;-72
2023/07/01 11:49:17;;;;;;;3.80;1.55;;;;;;;;;;5014859;28;20387;-72
2023/07/01 11:51:44;;;;;;;2.83;1.80;;;;;;;;;;5032173;28;20854;-72
2023/07/01 11:54:11;;;;;;;3.25;1.80;;;;;;;;;;5032395;28;20379;-71
2023/07/01 11:56:37;;;;;;;3.08;1.90;;;;;;;;;;5014530;28;20773;-72
2023/07/01 11:59:03;;;;;;;2.20;1.80;;;;;;;;;;5032978;28;20371;-71
2023/07/01 12:01:29;;;;;;;3.38;1.80;;;;;;;;;;5014449;28;20391;-71
2023/07/01 12:03:55;;;;;;;2.28;1.90;;;;;;;;;;5032282;28;20386;-71
2023/07/01 12:06:24;;;;;;;2.85;1.90;;;;;;;;;;5032286;28;20375;-71
2023/07/01 12:08:57;;;;;;;2.20;1.80;;;;;;;;;;5014226;28;20474;-72
2023/07/01 12:11:24;;;;;;;2.50;1.88;;;;;;;;;;5014351;28;20379;-71
2023/07/01 12:13:51;;;;;;;1.98;1.58;;;;;;;;;;5014227;28;20470;-71
2023/07/01 12:16:17;;;;;;;2.30;1.88;;;;;;;;;;5032141;28;20391;-71
2023/07/01 12:18:43;;;;;;;2.65;1.60;;;;;;;;;;5032012;28;20723;-71
2023/07/01 12:21:09;;;;;;;1.90;1.70;;;;;;;;;;5013886;28;20403;-71
2023/07/01 12:23:41;;;;;;;2.40;1.90;;;;;;;;;;5014141;28;20455;-72
2023/07/01 12:26:07;;;;;;;2.45;1.92;;;;;;;;;;5014386;28;20808;-71
2023/07/01 12:28:33;;;;;;;3.22;2.30;;;;;;;;;;5031950;28;20384;-71
2023/07/01 12:30:59;;;;;;;2.80;2.30;;;;;;;;;;5014258;28;20436;-71
2023/07/01 12:33:25;;;;;;;2.67;2.30;;;;;;;;;;5033236;28;20207;-71
2023/07/01 12:35:52;;;;;;;2.53;2.37;;;;;;;;;;5032747;28;20179;-71
2023/07/01 12:38:19;;;;;;;3.40;2.50;;;;;;;;;;5033086;28;20175;-71
2023/07/01 12:40:45;;;;;;;2.80;2.60;;;;;;;;;;5032977;28;20199;-71
2023/07/01 12:43:11;;;;;;;4.37;2.40;;;;;;;;;;5015143;28;20745;-70
2023/07/01 12:45:37;;;;;;;2.50;2.30;;;;;;;;;;5032870;28;20183;-71
2023/07/01 12:48:07;;;;;;;2.63;2.43;;;;;;;;;;5033210;28;20622;-70
2023/07/01 12:50:33;;;;;;;2.57;2.00;;;;;;;;;;5033167;28;20194;-71
2023/07/01 12:52:59;;;;;;;3.23;2.40;;;;;;;;;;5033409;28;20202;-69
2023/07/01 12:55:25;;;;;;;2.57;2.37;;;;;;;;;;5015177;28;20195;-68
2023/07/01 12:57:51;;;;;;;4.63;2.50;;;;;;;;;;5033346;28;20179;-69
2023/07/01 13:00:17;;;;;;;2.40;2.20;;;;;;;;;;5033525;28;20214;-68
2023/07/01 13:02:45;;;;;;;2.10;2.00;;;;;;;;;;5018776;28;20199;-68
2023/07/01 13:05:14;;;;;;;3.07;2.10;;;;;;;;;;5036536;28;20175;-68
2023/07/01 13:07:40;;;;;;;2.00;1.80;;;;;;;;;;5018653;28;20185;-68
2023/07/01 13:10:07;;;;;;;2.10;1.90;;;;;;;;;;5036270;28;20183;-69
2023/07/01 13:12:35;;;;;;;1.97;1.87;;;;;;;;;;5036475;28;20191;-69
2023/07/01 13:15:02;;;;;;;2.07;1.83;;;;;;;;;;5036357;28;20257;-69
2023/07/01 13:17:38;;;;;;;2.20;2.07;;;;;;;;;;5018560;28;20252;-69
2023/07/01 13:20:08;;;;;;;2.03;1.90;;;;;;;;;;5036473;28;20669;-69
2023/07/01 13:22:34;;;;;;;3.67;2.73;;;;;;;;;;5035946;28;20693;-68
2023/07/01 13:25:01;;;;;;;3.80;2.40;;;;;;;;;;5036096;28;20258;-69
2023/07/01 13:27:27;;;;;;;1.90;1.80;;;;;;;;;;5036161;28;20183;-69
2023/07/01 13:29:53;;;;;;;3.30;2.27;;;;;;;;;;5018787;28;20646;-71
2023/07/01 13:32:22;;;;;;;2.20;2.00;;;;;;;;;;5018565;28;20210;-69
2023/07/01 13:34:48;;;;;;;3.67;1.43;;;;;;;;;;5018158;28;20641;-69
2023/07/01 13:37:18;;;;;;;1.50;1.40;;;;;;;;;;5018071;28;20270;-69
2023/07/01 13:39:45;;;;;;;1.50;1.40;;;;;;;;;;5018086;28;20202;-68
2023/07/01 13:42:11;;;;;;;1.57;1.47;;;;;;;;;;5035977;28;20282;-68
2023/07/01 13:44:38;;;;;;;4.03;1.50;;;;;;;;;;5035788;28;20179;-69
2023/07/01 13:47:05;;;;;;;1.50;1.40;;;;;;;;;;5036562;28;20203;-69
2023/07/01 13:49:32;;;;;;;1.30;1.20;;;;;;;;;;5018024;28;20183;-69
2023/07/01 13:51:58;;;;;;;2.13;1.60;;;;;;;;;;5017827;28;20626;-68
2023/07/01 13:54:24;;;;;;;;;;;;;;;;;;5036094;28;20025;-69
2023/07/01 13:56:50;;;;;;;1.60;1.50;;;;;;;;;;5034624;28;20433;-69
2023/07/01 13:59:20;;;;;;;1.40;1.30;;;;;;;;;;5035408;28;20195;-69
2023/07/01 14:01:55;;;;;;;1.60;1.50;;;;;;;;;;5017586;28;20199;-69
2023/07/01 14:04:21;;;;;;;1.70;1.60;;;;;;;;;;5017688;28;20178;-69
2023/07/01 14:06:47;;;;;;;1.70;1.60;;;;;;;;;;5017504;28;20268;-69
2023/07/01 14:09:20;;;;;;;2.67;1.47;;;;;;;;;;5035596;28;20213;-69
2023/07/01 14:11:46;;;;;;;1.70;1.60;;;;;;;;;;5034197;28;20190;-69
2023/07/01 14:14:19;;;;;;;2.40;1.80;;;;;;;;;;5035344;28;20587;-69
2023/07/01 14:16:45;;;;;;;1.90;1.80;;;;;;;;;;5017647;28;20176;-69
2023/07/01 14:19:12;;;;;;;2.17;1.70;;;;;;;;;;5035203;28;20198;-69
2023/07/01 14:21:38;;;;;;;1.83;1.73;;;;;;;;;;5017115;28;20685;-69
2023/07/01 14:24:04;;;;;;;1.73;1.63;;;;;;;;;;5035148;28;20198;-69
2023/07/01 14:26:37;;;;;;;2.17;1.80;;;;;;;;;;5035470;28;20179;-69
2023/07/01 14:29:03;;;;;;;2.70;1.83;;;;;;;;;;5016152;28;20414;-69
2023/07/01 14:31:29;;;;;;;;;;;;;;;;;;5035488;28;20264;-69
2023/07/01 14:33:56;;;;;;;2.67;1.70;;;;;;;;;;5033767;28;20393;-69
2023/07/01 14:36:24;;;;;;;2.05;1.85;;;;;;;;;;5033840;28;20375;-69
2023/07/01 14:38:50;;;;;;;1.70;1.60;;;;;;;;;;5015791;28;20388;-69
2023/07/01 14:41:20;;;;;;;2.13;1.75;;;;;;;;;;5034848;28;20421;-69
2023/07/01 14:43:46;;;;;;;2.17;1.95;;;;;;;;;;5015970;28;20387;-69
2023/07/01 14:46:12;;;;;;;2.55;2.00;;;;;;;;;;5033337;28;20730;-70